Time;durP1;ratioP1;P1;durP2;ratioP2;P2;SDS_P1;SDS_P2;PMS_P1;PMS_P2;Temp;Humidity;BMP_temperature;BMP_pressure;BME280_temperature;BME280_humidity;BME280_pressure;Samples;Min_cycle;Max_cycle;Signal;HPM_P1;HPM_P2
2023/03/27 00:00:11;;;;;;;6.25;3.88;;;;;;;;;;1036095;28;20084;-23
2023/03/27 00:00:42;;;;;;;4.32;3.83;;;;;;;;;;1035225;28;20022;-17
2023/03/27 00:01:14;;;;;;;9.82;4.72;;;;;;;;;;1036049;28;20433;-20
2023/03/27 00:01:45;;;;;;;8.55;5.13;;;;;;;;;;1035939;28;20452;-22
2023/03/27 00:02:17;;;;;;;5.90;4.63;;;;;;;;;;1036008;28;20080;-18
2023/03/27 00:02:48;;;;;;;8.25;4.78;;;;;;;;;;1035441;28;20533;-19
2023/03/27 00:03:19;;;;;;;6.57;4.28;;;;;;;;;;1036005;28;20025;-23
2023/03/27 00:03:50;;;;;;;12.75;5.70;;;;;;;;;;1035869;28;20033;-21
2023/03/27 00:04:21;;;;;;;5.53;4.22;;;;;;;;;;1035882;28;20024;-21
2023/03/27 00:04:53;;;;;;;21.25;4.35;;;;;;;;;;1035867;28;20041;-21
2023/03/27 00:05:24;;;;;;;26.85;4.72;;;;;;;;;;1034922;28;20381;-20
2023/03/27 00:05:59;;;;;;;14.07;4.63;;;;;;;;;;1036000;28;20025;-19
2023/03/27 00:06:33;;;;;;;11.45;5.13;;;;;;;;;;1035386;28;20103;-20
2023/03/27 00:07:03;;;;;;;20.52;5.25;;;;;;;;;;1035867;28;20037;-22
2023/03/27 00:07:34;;;;;;;5.50;3.70;;;;;;;;;;1035714;28;20029;-19
2023/03/27 00:08:08;;;;;;;7.20;4.05;;;;;;;;;;1036141;28;20497;-20
2023/03/27 00:08:39;;;;;;;21.80;4.47;;;;;;;;;;1034678;28;20426;-20
2023/03/27 00:09:10;;;;;;;12.43;3.97;;;;;;;;;;1035988;28;20026;-20
2023/03/27 00:09:43;;;;;;;8.25;5.07;;;;;;;;;;1035810;28;20115;-21
2023/03/27 00:10:13;;;;;;;3.22;2.92;;;;;;;;;;1036074;28;20034;-20
2023/03/27 00:10:46;;;;;;;8.65;3.78;;;;;;;;;;1035772;28;20034;-21
2023/03/27 00:11:18;;;;;;;6.07;3.30;;;;;;;;;;1035843;28;20017;-21
2023/03/27 00:11:48;;;;;;;15.95;6.18;;;;;;;;;;1035481;28;20113;-22
2023/03/27 00:12:19;;;;;;;5.03;4.53;;;;;;;;;;1035801;28;20030;-22
2023/03/27 00:12:49;;;;;;;9.55;4.65;;;;;;;;;;1035661;28;20375;-20
2023/03/27 00:13:20;;;;;;;13.40;4.57;;;;;;;;;;1036017;28;20026;-21
2023/03/27 00:13:53;;;;;;;21.23;6.03;;;;;;;;;;1035879;28;20022;-19
2023/03/27 00:14:23;;;;;;;11.07;5.78;;;;;;;;;;1035078;28;20029;-22
2023/03/27 00:14:54;;;;;;;11.20;4.78;;;;;;;;;;1035887;28;20021;-22
2023/03/27 00:15:24;;;;;;;13.77;4.65;;;;;;;;;;1035881;28;20030;-20
2023/03/27 00:15:55;;;;;;;6.60;3.67;;;;;;;;;;1036002;28;20446;-18
2023/03/27 00:16:26;;;;;;;21.13;4.13;;;;;;;;;;1035970;28;20026;-22
2023/03/27 00:16:58;;;;;;;8.77;3.90;;;;;;;;;;1035862;28;20149;-20
2023/03/27 00:17:29;;;;;;;9.55;4.18;;;;;;;;;;1035676;28;20025;-21
2023/03/27 00:18:03;;;;;;;10.30;2.70;;;;;;;;;;1036206;28;20032;-23
2023/03/27 00:18:33;;;;;;;10.02;4.95;;;;;;;;;;1035654;28;20030;-19
2023/03/27 00:19:04;;;;;;;9.15;3.97;;;;;;;;;;1036119;28;20473;-20
2023/03/27 00:19:35;;;;;;;9.10;4.80;;;;;;;;;;1035723;28;20053;-21
2023/03/27 00:20:06;;;;;;;9.27;4.60;;;;;;;;;;1036100;28;20026;-21
2023/03/27 00:20:36;;;;;;;13.82;5.60;;;;;;;;;;1035466;28;20076;-18
2023/03/27 00:21:06;;;;;;;17.77;4.75;;;;;;;;;;1035739;28;20120;-20
2023/03/27 00:21:37;;;;;;;7.45;5.55;;;;;;;;;;1035471;28;20026;-20
2023/03/27 00:22:08;;;;;;;6.10;4.57;;;;;;;;;;1035871;28;20040;-20
2023/03/27 00:22:39;;;;;;;8.15;5.97;;;;;;;;;;1035791;28;20470;-21
2023/03/27 00:23:11;;;;;;;7.53;3.90;;;;;;;;;;1034572;28;20030;-21
2023/03/27 00:23:42;;;;;;;18.65;6.55;;;;;;;;;;1035718;28;20022;-21
2023/03/27 00:24:14;;;;;;;10.18;4.63;;;;;;;;;;1035697;28;20018;-20
2023/03/27 00:24:45;;;;;;;14.88;6.30;;;;;;;;;;1035339;28;20030;-21
2023/03/27 00:25:21;;;;;;;10.82;4.53;;;;;;;;;;1035927;28;20026;-22
2023/03/27 00:25:53;;;;;;;7.50;3.95;;;;;;;;;;1035337;28;20497;-21
2023/03/27 00:26:23;;;;;;;21.15;5.63;;;;;;;;;;1035711;28;20486;-20
2023/03/27 00:26:54;;;;;;;7.53;4.22;;;;;;;;;;1035831;28;20037;-19
2023/03/27 00:27:25;;;;;;;18.35;7.30;;;;;;;;;;1035835;28;20474;-21
2023/03/27 00:27:57;;;;;;;16.63;4.10;;;;;;;;;;1036027;28;20025;-19
2023/03/27 00:28:29;;;;;;;11.57;5.07;;;;;;;;;;1035727;28;20389;-20
2023/03/27 00:28:59;;;;;;;14.77;4.15;;;;;;;;;;1035956;28;20025;-21
2023/03/27 00:29:30;;;;;;;12.07;4.72;;;;;;;;;;1035778;28;20026;-20
2023/03/27 00:30:00;;;;;;;11.60;5.68;;;;;;;;;;1036139;28;20030;-23
2023/03/27 00:30:32;;;;;;;9.15;5.72;;;;;;;;;;1035673;28;20123;-19
2023/03/27 00:31:03;;;;;;;9.27;5.38;;;;;;;;;;1035489;28;20034;-21
2023/03/27 00:31:33;;;;;;;12.93;5.10;;;;;;;;;;1035662;28;20029;-20
2023/03/27 00:32:04;;;;;;;12.68;5.82;;;;;;;;;;1036043;28;20026;-18
2023/03/27 00:32:35;;;;;;;8.02;4.88;;;;;;;;;;1035644;28;20026;-23
2023/03/27 00:33:07;;;;;;;12.15;7.40;;;;;;;;;;1036013;28;20021;-19
2023/03/27 00:33:37;;;;;;;12.07;4.45;;;;;;;;;;1035205;28;20383;-22
2023/03/27 00:34:09;;;;;;;11.10;5.20;;;;;;;;;;1035956;28;20064;-21
2023/03/27 00:34:39;;;;;;;15.38;4.55;;;;;;;;;;1034825;28;20032;-20
2023/03/27 00:35:11;;;;;;;15.65;6.50;;;;;;;;;;1035955;28;20049;-20
2023/03/27 00:35:45;;;;;;;19.63;4.53;;;;;;;;;;1035676;28;20120;-18
2023/03/27 00:36:16;;;;;;;7.95;5.53;;;;;;;;;;1037623;28;20428;-19
2023/03/27 00:36:49;;;;;;;8.57;3.20;;;;;;;;;;1037907;28;20142;-19
2023/03/27 00:37:20;;;;;;;13.23;4.90;;;;;;;;;;1037922;28;20484;-19
2023/03/27 00:37:51;;;;;;;41.28;6.95;;;;;;;;;;1037317;28;20029;-17
2023/03/27 00:38:21;;;;;;;18.80;8.10;;;;;;;;;;1035934;28;20024;-20
2023/03/27 00:38:52;;;;;;;5.22;3.15;;;;;;;;;;1035657;28;20496;-20
2023/03/27 00:39:22;;;;;;;9.73;4.05;;;;;;;;;;1035900;28;20053;-20
2023/03/27 00:39:54;;;;;;;8.23;3.83;;;;;;;;;;1034415;28;20060;-21
2023/03/27 00:40:25;;;;;;;5.22;3.17;;;;;;;;;;1036478;28;20033;-21
2023/03/27 00:40:56;;;;;;;14.60;5.70;;;;;;;;;;1035523;28;20120;-21
2023/03/27 00:41:26;;;;;;;43.33;6.88;;;;;;;;;;1035575;28;20026;-19
2023/03/27 00:41:57;;;;;;;18.60;4.70;;;;;;;;;;1035726;28;20057;-17
2023/03/27 00:42:27;;;;;;;11.88;5.88;;;;;;;;;;1034896;28;20088;-22
2023/03/27 00:42:58;;;;;;;10.50;5.38;;;;;;;;;;1035760;28;20363;-21
2023/03/27 00:43:33;;;;;;;12.38;5.45;;;;;;;;;;1035692;28;21156;-20
2023/03/27 00:44:19;;;;;;;14.57;5.68;;;;;;;;;;1035653;28;20390;-21
2023/03/27 00:44:50;;;;;;;23.00;4.90;;;;;;;;;;1035233;28;20630;-19
2023/03/27 00:45:22;;;;;;;20.40;5.32;;;;;;;;;;1035887;28;20072;-21
2023/03/27 00:46:02;;;;;;;8.52;4.15;;;;;;;;;;1034160;28;20453;-18
2023/03/27 00:46:41;;;;;;;20.63;7.05;;;;;;;;;;1035069;28;20022;-22
2023/03/27 00:47:13;;;;;;;11.63;5.00;;;;;;;;;;1035092;28;20088;-21
2023/03/27 00:47:44;;;;;;;21.45;6.60;;;;;;;;;;1035551;28;20057;-23
2023/03/27 00:48:15;;;;;;;17.20;7.18;;;;;;;;;;1035836;28;20034;-20
2023/03/27 00:48:48;;;;;;;13.98;3.88;;;;;;;;;;1035471;28;20049;-23
2023/03/27 00:49:20;;;;;;;8.32;4.90;;;;;;;;;;1035421;28;20025;-20
2023/03/27 00:49:51;;;;;;;11.60;6.15;;;;;;;;;;1035636;28;20030;-21
2023/03/27 00:50:24;;;;;;;14.75;6.68;;;;;;;;;;1034503;28;20124;-21
2023/03/27 00:50:56;;;;;;;14.10;4.50;;;;;;;;;;1035860;28;20025;-18
2023/03/27 00:51:27;;;;;;;13.55;6.47;;;;;;;;;;1034460;28;20028;-21
2023/03/27 00:51:58;;;;;;;8.63;4.03;;;;;;;;;;1035725;28;20555;-22
2023/03/27 00:52:30;;;;;;;15.13;5.43;;;;;;;;;;1035555;28;20018;-23
2023/03/27 00:53:04;;;;;;;18.35;5.88;;;;;;;;;;1035882;28;20026;-20
2023/03/27 00:53:36;;;;;;;12.25;5.13;;;;;;;;;;1035397;28;20021;-21
2023/03/27 00:54:07;;;;;;;11.57;5.18;;;;;;;;;;1035724;28;20393;-22
2023/03/27 00:54:38;;;;;;;7.78;4.22;;;;;;;;;;1035542;28;20030;-20
2023/03/27 00:55:13;;;;;;;14.38;5.25;;;;;;;;;;1035789;28;20026;-21
2023/03/27 00:55:46;;;;;;;8.82;3.92;;;;;;;;;;1034611;28;20022;-17
2023/03/27 00:56:16;;;;;;;6.60;4.05;;;;;;;;;;1035780;28;20028;-20
2023/03/27 00:56:48;;;;;;;9.95;5.18;;;;;;;;;;1035717;28;20074;-22
2023/03/27 00:57:20;;;;;;;4.75;4.03;;;;;;;;;;1035426;28;20541;-19
2023/03/27 00:57:54;;;;;;;9.25;4.68;;;;;;;;;;1035795;28;20486;-23
2023/03/27 00:58:26;;;;;;;11.77;4.53;;;;;;;;;;1035380;28;20029;-21
2023/03/27 00:58:59;;;;;;;11.38;6.53;;;;;;;;;;1035831;28;20029;-21
2023/03/27 00:59:33;;;;;;;27.13;5.85;;;;;;;;;;1035645;28;20025;-23
2023/03/27 01:00:11;;;;;;;9.07;5.65;;;;;;;;;;1035628;28;20057;-22
2023/03/27 01:00:42;;;;;;;11.40;5.55;;;;;;;;;;1034727;28;20022;-21
2023/03/27 01:01:14;;;;;;;18.38;6.78;;;;;;;;;;1034575;28;20076;-23
2023/03/27 01:01:45;;;;;;;16.83;6.35;;;;;;;;;;1035800;28;20025;-19
2023/03/27 01:02:16;;;;;;;15.15;7.70;;;;;;;;;;1035151;28;20058;-23
2023/03/27 01:02:48;;;;;;;44.38;10.43;;;;;;;;;;1035324;28;20037;-20
2023/03/27 01:03:19;;;;;;;31.15;13.65;;;;;;;;;;1035061;28;20022;-20
2023/03/27 01:03:51;;;;;;;14.60;8.02;;;;;;;;;;1035425;28;20061;-18
2023/03/27 01:04:22;;;;;;;15.27;6.95;;;;;;;;;;1042193;28;20025;-19
2023/03/27 01:04:53;;;;;;;22.83;9.05;;;;;;;;;;1041454;28;20146;-21
2023/03/27 01:05:26;;;;;;;19.10;11.27;;;;;;;;;;1041055;28;20079;-19
2023/03/27 01:05:57;;;;;;;21.13;8.95;;;;;;;;;;1039898;28;20075;-20
2023/03/27 01:06:29;;;;;;;26.35;11.75;;;;;;;;;;1034443;28;20341;-19
2023/03/27 01:06:59;;;;;;;34.25;14.20;;;;;;;;;;1034664;28;20184;-21
2023/03/27 01:07:30;;;;;;;34.35;17.27;;;;;;;;;;1035452;28;20080;-22
2023/03/27 01:08:01;;;;;;;81.80;29.55;;;;;;;;;;1033754;28;20013;-21
2023/03/27 01:08:34;;;;;;;121.47;51.05;;;;;;;;;;1034084;28;20065;-24
2023/03/27 01:09:04;;;;;;;119.50;51.78;;;;;;;;;;1034287;28;20386;-21
2023/03/27 01:09:35;;;;;;;113.55;45.17;;;;;;;;;;1035212;28;20065;-22
2023/03/27 01:10:06;;;;;;;136.35;52.97;;;;;;;;;;1035443;28;20013;-18
2023/03/27 01:10:48;;;;;;;101.95;41.08;;;;;;;;;;1035547;28;20096;-21
2023/03/27 01:11:19;;;;;;;89.82;39.25;;;;;;;;;;1034597;28;20492;-17
2023/03/27 01:11:53;;;;;;;103.03;40.97;;;;;;;;;;1034980;28;20029;-20
2023/03/27 01:12:23;;;;;;;93.10;44.30;;;;;;;;;;1034328;28;20077;-21
2023/03/27 01:13:20;;;;;;;79.35;35.65;;;;;;;;;;1035465;28;20476;-21
2023/03/27 01:13:50;;;;;;;95.40;34.35;;;;;;;;;;1026687;28;20047;-20
2023/03/27 01:14:36;;;;;;;82.95;33.08;;;;;;;;;;1028664;28;20022;-22
2023/03/27 01:15:25;;;;;;;69.50;27.98;;;;;;;;;;1035349;28;20041;-18
2023/03/27 01:16:04;;;;;;;54.38;27.50;;;;;;;;;;1035310;28;20115;-20
2023/03/27 01:16:38;;;;;;;106.00;50.55;;;;;;;;;;1034938;28;20036;-20
2023/03/27 01:17:08;;;;;;;69.05;31.08;;;;;;;;;;1035534;28;20033;-22
2023/03/27 01:17:45;;;;;;;95.38;47.90;;;;;;;;;;1035388;28;20021;-18
2023/03/27 01:18:22;;;;;;;55.55;25.65;;;;;;;;;;1037008;28;20104;-20
2023/03/27 01:18:52;;;;;;;43.95;17.95;;;;;;;;;;1035383;28;20444;-22
2023/03/27 01:19:41;;;;;;;42.75;19.80;;;;;;;;;;1034586;28;20076;-19
2023/03/27 01:20:31;;;;;;;24.55;11.27;;;;;;;;;;1035073;28;20029;-20
2023/03/27 01:21:07;;;;;;;23.63;11.60;;;;;;;;;;1035651;28;20033;-21
2023/03/27 01:21:37;;;;;;;35.75;13.68;;;;;;;;;;1033442;28;20504;-17
2023/03/27 01:22:23;;;;;;;25.95;12.23;;;;;;;;;;1035219;28;20108;-20
2023/03/27 01:23:12;;;;;;;37.90;17.35;;;;;;;;;;1034825;28;20053;-21
2023/03/27 01:23:58;;;;;;;20.30;10.93;;;;;;;;;;1034127;28;20042;-22
2023/03/27 01:24:47;;;;;;;48.05;17.10;;;;;;;;;;1035433;28;20243;-15
2023/03/27 01:25:30;;;;;;;26.05;14.27;;;;;;;;;;1035011;28;20019;-19
2023/03/27 01:26:18;;;;;;;27.38;13.23;;;;;;;;;;1035798;28;20088;-19
2023/03/27 01:26:56;;;;;;;22.77;11.90;;;;;;;;;;1035326;28;20037;-20
2023/03/27 01:27:37;;;;;;;20.63;11.02;;;;;;;;;;1033250;28;20017;-20
2023/03/27 01:28:15;;;;;;;30.27;11.20;;;;;;;;;;1030080;28;20057;-18
2023/03/27 01:28:55;;;;;;;30.20;12.95;;;;;;;;;;1031861;28;20041;-22
2023/03/27 01:29:29;;;;;;;22.00;11.32;;;;;;;;;;1035138;28;20102;-18
2023/03/27 01:30:21;;;;;;;18.58;9.40;;;;;;;;;;1035185;28;20639;-20
2023/03/27 01:30:58;;;;;;;19.30;11.57;;;;;;;;;;1033605;28;20036;-22
2023/03/27 01:31:37;;;;;;;26.23;13.82;;;;;;;;;;1035829;28;20084;-21
2023/03/27 01:32:21;;;;;;;31.25;15.70;;;;;;;;;;1037523;28;20441;-21
2023/03/27 01:32:51;;;;;;;20.40;13.57;;;;;;;;;;1037393;28;20039;-18
2023/03/27 01:33:31;;;;;;;34.20;15.23;;;;;;;;;;1033240;28;20018;-18
2023/03/27 01:34:10;;;;;;;33.08;12.80;;;;;;;;;;1034047;28;20029;-20
2023/03/27 01:34:52;;;;;;;29.20;12.02;;;;;;;;;;1031747;28;20537;-19
2023/03/27 01:35:41;;;;;;;21.08;11.32;;;;;;;;;;1033203;28;20022;-18
2023/03/27 01:36:31;;;;;;;18.60;8.33;;;;;;;;;;1034120;28;20071;-20
2023/03/27 01:37:05;;;;;;;15.52;8.30;;;;;;;;;;1033669;28;20264;-23
2023/03/27 01:37:54;;;;;;;12.20;7.80;;;;;;;;;;1032898;28;20311;-21
2023/03/27 01:38:33;;;;;;;27.27;9.05;;;;;;;;;;1034399;28;20070;-21
2023/03/27 01:39:13;;;;;;;26.58;10.75;;;;;;;;;;1033990;28;20460;-23
2023/03/27 01:39:49;;;;;;;26.63;12.68;;;;;;;;;;1032350;28;20038;-20
2023/03/27 01:40:37;;;;;;;23.33;12.43;;;;;;;;;;1033649;28;20022;-22
2023/03/27 01:41:23;;;;;;;36.33;16.70;;;;;;;;;;1033373;28;20026;-22
2023/03/27 01:42:11;;;;;;;40.70;13.95;;;;;;;;;;1033642;28;20033;-24
2023/03/27 01:42:51;;;;;;;40.08;14.30;;;;;;;;;;1033701;28;20026;-21
2023/03/27 01:43:22;;;;;;;;;;;;;;;;;;1034304;28;20113;-20
2023/03/27 01:43:55;;;;;;;25.33;9.05;;;;;;;;;;1038496;28;20558;-22
2023/03/27 01:44:30;;;;;;;20.98;10.93;;;;;;;;;;1037958;28;20029;-18
2023/03/27 01:45:06;;;;;;;23.83;12.63;;;;;;;;;;1036064;28;20032;-20
2023/03/27 01:45:41;;;;;;;20.95;10.43;;;;;;;;;;1033981;28;20024;-18
2023/03/27 01:46:19;;;;;;;10.05;8.50;;;;;;;;;;1029729;28;20037;-23
2023/03/27 01:46:56;;;;;;;24.25;9.43;;;;;;;;;;1024896;28;20089;-18
2023/03/27 01:47:26;;;;;;;29.15;8.18;;;;;;;;;;1027558;28;20116;-21
2023/03/27 01:48:05;;;;;;;16.30;9.82;;;;;;;;;;1031196;28;20065;-21
2023/03/27 01:48:39;;;;;;;16.02;9.38;;;;;;;;;;1033401;28;20561;-19
2023/03/27 01:49:13;;;;;;;22.67;10.13;;;;;;;;;;1035048;28;20022;-18
2023/03/27 01:49:50;;;;;;;15.80;7.75;;;;;;;;;;1035203;28;20025;-19
2023/03/27 01:50:20;;;;;;;45.13;7.70;;;;;;;;;;1034721;28;20034;-21
2023/03/27 01:50:54;;;;;;;20.00;9.77;;;;;;;;;;1034481;28;20030;-20
2023/03/27 01:51:28;;;;;;;15.95;8.10;;;;;;;;;;1033337;28;20030;-22
2023/03/27 01:52:03;;;;;;;27.20;9.65;;;;;;;;;;1037490;28;20029;-23
2023/03/27 01:52:37;;;;;;;18.70;8.05;;;;;;;;;;1036459;28;20112;-21
2023/03/27 01:53:12;;;;;;;12.60;6.00;;;;;;;;;;1036588;28;20076;-20
2023/03/27 01:53:51;;;;;;;24.65;8.45;;;;;;;;;;1032857;28;20046;-20
2023/03/27 01:54:21;;;;;;;11.93;5.55;;;;;;;;;;1034618;28;20521;-21
2023/03/27 01:54:57;;;;;;;14.95;7.03;;;;;;;;;;1034199;28;20398;-19
2023/03/27 01:55:35;;;;;;;29.00;10.85;;;;;;;;;;1033671;28;20030;-20
2023/03/27 01:56:12;;;;;;;11.20;6.00;;;;;;;;;;1035358;28;20022;-20
2023/03/27 01:56:52;;;;;;;23.50;8.68;;;;;;;;;;1034672;28;20026;-19
2023/03/27 01:57:27;;;;;;;18.98;8.88;;;;;;;;;;1034456;28;20113;-21
2023/03/27 01:58:04;;;;;;;16.35;8.95;;;;;;;;;;1034809;28;20040;-22
2023/03/27 01:58:38;;;;;;;12.73;9.23;;;;;;;;;;1034257;28;20036;-21
2023/03/27 01:59:11;;;;;;;22.38;10.88;;;;;;;;;;1034460;28;20502;-22
2023/03/27 01:59:44;;;;;;;35.78;10.02;;;;;;;;;;1032210;28;20941;-23
2023/03/27 02:00:20;;;;;;;19.67;8.45;;;;;;;;;;1033845;28;20124;-21
2023/03/27 02:00:53;;;;;;;11.88;8.15;;;;;;;;;;1033146;28;20030;-19
2023/03/27 02:01:27;;;;;;;10.02;6.28;;;;;;;;;;1033587;28;20022;-21
2023/03/27 02:01:59;;;;;;;14.15;9.73;;;;;;;;;;1033679;28;20508;-21
2023/03/27 02:02:31;;;;;;;12.18;6.78;;;;;;;;;;1033818;28;20478;-21
2023/03/27 02:03:01;;;;;;;19.90;8.68;;;;;;;;;;1034384;28;20433;-21
2023/03/27 02:03:40;;;;;;;12.57;7.32;;;;;;;;;;1032683;28;20104;-23
2023/03/27 02:04:13;;;;;;;14.38;6.65;;;;;;;;;;1034333;28;20030;-22
2023/03/27 02:05:04;;;;;;;8.27;6.60;;;;;;;;;;1034240;28;20057;-22
2023/03/27 02:05:38;;;;;;;13.68;8.55;;;;;;;;;;1032414;28;20045;-20
2023/03/27 02:06:18;;;;;;;12.10;7.85;;;;;;;;;;1034047;28;20036;-21
2023/03/27 02:06:54;;;;;;;7.60;4.90;;;;;;;;;;1032931;28;20022;-18
2023/03/27 02:07:29;;;;;;;14.52;7.90;;;;;;;;;;1032945;28;20165;-21
2023/03/27 02:08:20;;;;;;;16.38;7.38;;;;;;;;;;1034779;28;20549;-22
2023/03/27 02:08:59;;;;;;;7.60;6.20;;;;;;;;;;1033076;28;20064;-19
2023/03/27 02:09:50;;;;;;;7.82;4.90;;;;;;;;;;1032188;28;20134;-20
2023/03/27 02:10:24;;;;;;;20.08;6.28;;;;;;;;;;1033451;28;20034;-20
2023/03/27 02:10:56;;;;;;;17.85;7.28;;;;;;;;;;1033255;28;20481;-21
2023/03/27 02:11:28;;;;;;;23.83;7.85;;;;;;;;;;1032590;28;20611;-21
2023/03/27 02:11:59;;;;;;;30.77;6.82;;;;;;;;;;1034156;28;20034;-20
2023/03/27 02:12:32;;;;;;;19.92;7.72;;;;;;;;;;1033045;28;20073;-23
2023/03/27 02:13:08;;;;;;;23.48;6.32;;;;;;;;;;1034920;28;20032;-22
2023/03/27 02:13:41;;;;;;;18.60;8.45;;;;;;;;;;1034826;28;20124;-20
2023/03/27 02:14:14;;;;;;;10.82;5.95;;;;;;;;;;1034107;28;20476;-20
2023/03/27 02:14:55;;;;;;;14.13;6.10;;;;;;;;;;1034843;28;20037;-20
2023/03/27 02:15:30;;;;;;;22.45;5.43;;;;;;;;;;1033158;28;20454;-23
2023/03/27 02:16:01;;;;;;;11.02;5.22;;;;;;;;;;1034655;28;20022;-20
2023/03/27 02:16:35;;;;;;;11.40;6.93;;;;;;;;;;1033242;28;20444;-20
2023/03/27 02:17:08;;;;;;;24.13;6.15;;;;;;;;;;1034518;28;20417;-22
2023/03/27 02:17:43;;;;;;;14.15;8.25;;;;;;;;;;1033328;28;20034;-18
2023/03/27 02:18:18;;;;;;;16.30;8.13;;;;;;;;;;1033119;28;20478;-21
2023/03/27 02:18:53;;;;;;;27.30;6.68;;;;;;;;;;1029052;28;20607;-20
2023/03/27 02:19:32;;;;;;;20.10;8.68;;;;;;;;;;1033336;28;20025;-22
2023/03/27 02:20:10;;;;;;;16.98;7.30;;;;;;;;;;1031759;28;20022;-21
2023/03/27 02:20:44;;;;;;;12.80;5.70;;;;;;;;;;1029736;28;20047;-21
2023/03/27 02:21:22;;;;;;;40.33;8.38;;;;;;;;;;1025395;28;20414;-21
2023/03/27 02:21:55;;;;;;;20.20;7.78;;;;;;;;;;1031948;28;20536;-21
2023/03/27 02:22:27;;;;;;;14.70;7.68;;;;;;;;;;1035769;28;20021;-22
2023/03/27 02:23:01;;;;;;;23.88;6.72;;;;;;;;;;1038043;28;20053;-21
2023/03/27 02:23:32;;;;;;;33.03;7.03;;;;;;;;;;1035670;28;20034;-19
2023/03/27 02:24:04;;;;;;;13.43;6.50;;;;;;;;;;1034149;28;20088;-20
2023/03/27 02:24:37;;;;;;;30.20;7.55;;;;;;;;;;1033636;28;20068;-22
2023/03/27 02:25:25;;;;;;;21.42;7.93;;;;;;;;;;1034114;28;20029;-22
2023/03/27 02:25:56;;;;;;;18.20;7.45;;;;;;;;;;1034528;28;20112;-19
2023/03/27 02:26:31;;;;;;;12.40;6.88;;;;;;;;;;1035308;28;20390;-20
2023/03/27 02:27:08;;;;;;;27.95;10.43;;;;;;;;;;1034750;28;20057;-22
2023/03/27 02:27:41;;;;;;;8.82;6.20;;;;;;;;;;1033103;28;20477;-21
2023/03/27 02:28:30;;;;;;;8.13;5.35;;;;;;;;;;1031669;28;20026;-22
2023/03/27 02:29:06;;;;;;;30.30;8.10;;;;;;;;;;1032521;28;21388;-19
2023/03/27 02:29:42;;;;;;;16.75;6.68;;;;;;;;;;1032098;28;20112;-22
2023/03/27 02:30:22;;;;;;;19.83;5.47;;;;;;;;;;1033928;28;20084;-20
2023/03/27 02:31:00;;;;;;;22.67;7.57;;;;;;;;;;1033700;28;20080;-19
2023/03/27 02:32:00;;;;;;;15.25;6.07;;;;;;;;;;1031071;28;20030;-24
2023/03/27 02:32:36;;;;;;;5.13;3.15;;;;;;;;;;1021443;28;20481;-21
2023/03/27 02:33:13;;;;;;;10.13;4.78;;;;;;;;;;1033843;28;20034;-21
2023/03/27 02:33:44;;;;;;;12.25;6.18;;;;;;;;;;1033003;28;20032;-18
2023/03/27 02:34:15;;;;;;;8.75;5.30;;;;;;;;;;1033928;28;20484;-22
2023/03/27 02:34:49;;;;;;;15.60;5.53;;;;;;;;;;1033050;28;20030;-18
2023/03/27 02:35:22;;;;;;;15.18;6.75;;;;;;;;;;1033654;28;20557;-22
2023/03/27 02:35:53;;;;;;;13.45;5.47;;;;;;;;;;1033085;28;20552;-20
2023/03/27 02:36:27;;;;;;;10.85;5.68;;;;;;;;;;1033422;28;20396;-18
2023/03/27 02:37:02;;;;;;;14.65;4.93;;;;;;;;;;1032811;28;20517;-19
2023/03/27 02:37:40;;;;;;;10.00;4.85;;;;;;;;;;1032517;28;20498;-19
2023/03/27 02:38:17;;;;;;;14.95;5.43;;;;;;;;;;1034968;28;20084;-18
2023/03/27 02:38:57;;;;;;;20.70;8.65;;;;;;;;;;1032532;28;20068;-18
2023/03/27 02:39:39;;;;;;;19.55;6.25;;;;;;;;;;1033477;28;20026;-21
2023/03/27 02:40:14;;;;;;;26.58;7.78;;;;;;;;;;1033649;28;20036;-18
2023/03/27 02:41:02;;;;;;;15.82;5.70;;;;;;;;;;1034483;28;20022;-21
2023/03/27 02:41:52;;;;;;;13.00;6.85;;;;;;;;;;1037368;28;20028;-20
2023/03/27 02:42:25;;;;;;;9.52;6.45;;;;;;;;;;1035439;28;20048;-21
2023/03/27 02:43:15;;;;;;;10.38;5.35;;;;;;;;;;1038662;28;20026;-23
2023/03/27 02:43:53;;;;;;;19.00;5.78;;;;;;;;;;1032381;28;20161;-23
2023/03/27 02:44:26;;;;;;;17.00;9.30;;;;;;;;;;1031485;28;20034;-21
2023/03/27 02:45:01;;;;;;;14.75;7.20;;;;;;;;;;1034886;28;20038;-23
2023/03/27 02:45:41;;;;;;;21.40;5.85;;;;;;;;;;1032121;28;20549;-20
2023/03/27 02:46:15;;;;;;;9.52;4.38;;;;;;;;;;1032823;28;20125;-21
2023/03/27 02:46:50;;;;;;;10.40;5.82;;;;;;;;;;1032925;28;20100;-18
2023/03/27 02:47:24;;;;;;;6.70;5.05;;;;;;;;;;1033502;28;20381;-23
2023/03/27 02:48:05;;;;;;;13.27;7.40;;;;;;;;;;1030788;28;21240;-21
2023/03/27 02:48:40;;;;;;;12.15;6.50;;;;;;;;;;1027407;28;20387;-20
2023/03/27 02:49:14;;;;;;;12.13;7.18;;;;;;;;;;1028219;28;20069;-20
2023/03/27 02:49:50;;;;;;;16.30;7.88;;;;;;;;;;1031077;28;20402;-21
2023/03/27 02:50:25;;;;;;;13.85;5.95;;;;;;;;;;1037896;28;20139;-22
2023/03/27 02:50:58;;;;;;;10.35;7.28;;;;;;;;;;1040525;28;20033;-21
2023/03/27 02:51:47;;;;;;;8.70;5.75;;;;;;;;;;1036611;28;20033;-22
2023/03/27 02:52:40;;;;;;;20.52;9.30;;;;;;;;;;1031334;28;20112;-20
2023/03/27 02:53:14;;;;;;;15.35;6.53;;;;;;;;;;1036987;28;20037;-20
2023/03/27 02:53:53;;;;;;;9.38;5.47;;;;;;;;;;1039931;28;20391;-20
2023/03/27 02:54:39;;;;;;;22.13;7.10;;;;;;;;;;1036058;28;20559;-21
2023/03/27 02:55:21;;;;;;;18.92;6.82;;;;;;;;;;1029094;28;20148;-21
2023/03/27 02:55:56;;;;;;;12.38;7.30;;;;;;;;;;1032418;28;20096;-22
2023/03/27 02:56:30;;;;;;;18.13;6.90;;;;;;;;;;1036294;28;20057;-22
2023/03/27 02:57:05;;;;;;;16.90;6.40;;;;;;;;;;1032968;28;20034;-18
2023/03/27 02:57:40;;;;;;;25.00;7.82;;;;;;;;;;1034031;28;20032;-21
2023/03/27 02:58:16;;;;;;;42.20;8.68;;;;;;;;;;1031276;28;20487;-21
2023/03/27 02:59:08;;;;;;;20.30;6.68;;;;;;;;;;1031900;28;20359;-22
2023/03/27 02:59:44;;;;;;;15.98;8.88;;;;;;;;;;1032352;28;20124;-24
2023/03/27 03:00:25;;;;;;;14.02;5.78;;;;;;;;;;1028641;28;20034;-21
2023/03/27 03:01:00;;;;;;;25.10;8.10;;;;;;;;;;1024440;28;20766;-21
2023/03/27 03:01:33;;;;;;;10.27;6.30;;;;;;;;;;1028035;28;20064;-21
2023/03/27 03:02:12;;;;;;;12.95;7.43;;;;;;;;;;1023628;28;20026;-22
2023/03/27 03:02:48;;;;;;;13.00;6.18;;;;;;;;;;1025591;28;20027;-20
2023/03/27 03:03:27;;;;;;;12.88;5.93;;;;;;;;;;1030654;28;20161;-22
2023/03/27 03:04:06;;;;;;;60.00;9.73;;;;;;;;;;1027997;28;20061;-21
2023/03/27 03:04:46;;;;;;;23.58;7.95;;;;;;;;;;1019619;28;20433;-19
2023/03/27 03:05:23;;;;;;;23.58;6.55;;;;;;;;;;1023069;28;20142;-18
2023/03/27 03:06:05;;;;;;;12.80;6.43;;;;;;;;;;1024427;28;20031;-20
2023/03/27 03:06:46;;;;;;;29.27;8.25;;;;;;;;;;1023614;28;20522;-22
2023/03/27 03:07:48;;;;;;;10.82;4.45;;;;;;;;;;1034201;28;20041;-20
2023/03/27 03:08:37;;;;;;;14.35;6.57;;;;;;;;;;1024630;28;20474;-21
2023/03/27 03:09:13;;;;;;;11.98;5.00;;;;;;;;;;1024113;28;20067;-22
2023/03/27 03:10:13;;;;;;;17.67;8.35;;;;;;;;;;1018785;29;20116;-21
2023/03/27 03:11:27;;;;;;;13.38;6.35;;;;;;;;;;1017062;29;20645;-23
2023/03/27 03:12:04;;;;;;;13.50;6.00;;;;;;;;;;1015235;29;20030;-20
2023/03/27 03:12:49;;;;;;;12.00;6.35;;;;;;;;;;1012329;29;20040;-21
2023/03/27 03:13:21;;;;;;;19.90;6.97;;;;;;;;;;1001615;29;20028;-25
2023/03/27 03:13:54;;;;;;;15.25;7.63;;;;;;;;;;1010320;29;20384;-21
2023/03/27 03:14:31;;;;;;;13.38;6.97;;;;;;;;;;1012496;29;20102;-19
2023/03/27 03:15:07;;;;;;;23.15;7.65;;;;;;;;;;1011625;29;20573;-24
2023/03/27 03:15:44;;;;;;;21.05;8.60;;;;;;;;;;1007424;29;20148;-21
2023/03/27 03:16:17;;;;;;;24.33;8.77;;;;;;;;;;1008521;29;20535;-23
2023/03/27 03:16:50;;;;;;;12.90;5.20;;;;;;;;;;1006043;29;20044;-20
2023/03/27 03:17:22;;;;;;;11.32;7.22;;;;;;;;;;998320;29;20405;-22
2023/03/27 03:17:53;;;;;;;9.95;6.28;;;;;;;;;;1003244;29;20037;-22
2023/03/27 03:18:24;;;;;;;7.97;6.57;;;;;;;;;;1007024;29;20819;-23
2023/03/27 03:18:55;;;;;;;11.52;5.63;;;;;;;;;;1010745;29;20036;-20
2023/03/27 03:19:26;;;;;;;14.77;6.82;;;;;;;;;;1008886;29;20601;-22
2023/03/27 03:19:59;;;;;;;16.42;7.18;;;;;;;;;;1012978;29;20032;-22
2023/03/27 03:20:31;;;;;;;22.98;8.85;;;;;;;;;;1010931;29;20031;-20
2023/03/27 03:21:03;;;;;;;10.82;4.88;;;;;;;;;;1008335;29;20044;-20
2023/03/27 03:21:38;;;;;;;12.82;5.85;;;;;;;;;;1011106;29;20027;-22
2023/03/27 03:22:11;;;;;;;14.02;5.85;;;;;;;;;;1009458;29;20024;-21
2023/03/27 03:22:42;;;;;;;11.63;6.03;;;;;;;;;;1005835;29;20132;-24
2023/03/27 03:23:14;;;;;;;9.43;7.20;;;;;;;;;;1012844;29;20028;-21
2023/03/27 03:23:46;;;;;;;15.85;6.47;;;;;;;;;;1006430;29;20741;-24
2023/03/27 03:24:17;;;;;;;11.45;6.32;;;;;;;;;;1011972;29;20035;-22
2023/03/27 03:24:52;;;;;;;6.93;5.05;;;;;;;;;;1013710;29;20036;-23
2023/03/27 03:25:26;;;;;;;17.45;6.45;;;;;;;;;;1011514;29;20056;-21
2023/03/27 03:25:56;;;;;;;15.70;5.30;;;;;;;;;;1007492;29;20400;-21
2023/03/27 03:26:29;;;;;;;12.13;5.57;;;;;;;;;;1009679;29;20095;-25
2023/03/27 03:27:04;;;;;;;21.60;5.30;;;;;;;;;;1012693;29;20032;-23
2023/03/27 03:27:36;;;;;;;11.27;5.88;;;;;;;;;;1011070;29;20032;-21
2023/03/27 03:28:11;;;;;;;6.03;4.60;;;;;;;;;;1012591;29;20024;-22
2023/03/27 03:28:46;;;;;;;10.48;5.85;;;;;;;;;;1013241;29;20051;-20
2023/03/27 03:29:20;;;;;;;21.95;7.53;;;;;;;;;;1009205;29;20095;-22